createdAt,value
2023-03-05T00:00:30.812Z,1.51
2023-03-05T00:04:32.146Z,1.62
2023-03-05T00:08:33.580Z,1.60
2023-03-05T00:12:36.301Z,1.56
2023-03-05T00:16:37.660Z,1.37
2023-03-05T00:20:39.007Z,1.40
2023-03-05T00:24:40.400Z,1.59
2023-03-05T00:28:43.089Z,1.46
2023-03-05T00:32:44.419Z,1.37
2023-03-05T00:36:46.656Z,1.40
2023-03-05T00:40:50.051Z,1.43
2023-03-05T00:44:52.735Z,1.40
2023-03-05T00:48:54.238Z,1.38
2023-03-05T00:52:55.679Z,1.57
2023-03-05T00:56:57.030Z,1.50
2023-03-05T01:01:00.154Z,1.42
2023-03-05T01:05:01.623Z,1.69
2023-03-05T01:09:03.349Z,1.46
2023-03-05T01:13:04.771Z,1.55
2023-03-05T01:17:07.595Z,1.63
2023-03-05T01:21:09.442Z,1.68
2023-03-05T01:25:12.246Z,1.63
2023-03-05T01:29:13.596Z,1.56
2023-03-05T01:33:16.401Z,1.60
2023-03-05T01:37:17.847Z,1.59
2023-03-05T01:41:19.805Z,1.69
2023-03-05T01:45:21.318Z,1.55
2023-03-05T01:49:25.207Z,1.66
2023-03-05T01:53:26.597Z,1.53
2023-03-05T01:57:30.763Z,1.71
2023-03-05T02:01:33.823Z,1.54
2023-03-05T02:05:37.840Z,1.55
2023-03-05T02:09:40.042Z,1.47
2023-03-05T02:13:41.431Z,1.51
2023-03-05T02:17:42.972Z,1.51
2023-03-05T02:21:46.778Z,1.52
2023-03-05T02:25:48.518Z,1.53
2023-03-05T02:29:50.456Z,1.61
2023-03-05T02:33:52.250Z,1.57
2023-03-05T02:37:54.973Z,1.72
2023-03-05T02:41:56.488Z,1.65
2023-03-05T02:45:58.052Z,1.55
2023-03-05T02:49:59.589Z,1.78
2023-03-05T02:54:02.306Z,1.64
2023-03-05T02:58:03.673Z,1.51
2023-03-05T03:02:05.007Z,1.49
2023-03-05T03:06:06.871Z,1.51
2023-03-05T03:10:10.742Z,1.72
2023-03-05T03:14:12.087Z,1.70
2023-03-05T03:18:13.426Z,1.82
2023-03-05T03:22:15.257Z,1.77
2023-03-05T03:26:18.384Z,1.83
2023-03-05T03:30:19.847Z,1.70
2023-03-05T03:34:21.577Z,1.73
2023-03-05T03:38:22.922Z,1.66
2023-03-05T03:42:25.640Z,1.50
2023-03-05T03:46:27.027Z,1.47
2023-03-05T03:50:28.383Z,1.63
2023-03-05T03:54:29.738Z,1.77
2023-03-05T03:58:32.450Z,1.72
2023-03-05T04:02:33.979Z,1.85
2023-03-05T04:06:35.417Z,1.71
2023-03-05T04:10:36.752Z,1.65
2023-03-05T04:19:23.216Z,1.76
2023-03-05T04:23:24.781Z,1.89
2023-03-05T04:27:26.106Z,1.90
2023-03-05T04:31:27.539Z,1.80
2023-03-05T04:35:30.307Z,1.86
2023-03-05T04:39:31.670Z,1.75
2023-03-05T04:43:33.006Z,1.85
2023-03-05T04:47:34.429Z,1.69
2023-03-05T04:51:37.089Z,1.75
2023-03-05T04:55:38.410Z,1.65
2023-03-05T04:59:39.824Z,1.69
2023-03-05T05:03:41.164Z,1.63
2023-03-05T05:07:43.847Z,1.53
2023-03-05T05:11:45.166Z,1.40
2023-03-05T05:15:46.477Z,1.41
2023-03-05T05:19:47.806Z,1.40
2023-03-05T05:23:50.483Z,1.42
2023-03-05T05:27:51.830Z,1.46
2023-03-05T05:31:53.194Z,1.47
2023-03-05T05:35:54.581Z,1.33
2023-03-05T05:39:57.362Z,1.26
2023-03-05T05:43:58.683Z,1.17
2023-03-05T05:48:00.119Z,1.15
2023-03-05T05:52:01.442Z,1.13
2023-03-05T05:56:05.648Z,1.11
2023-03-05T06:00:10.465Z,1.10
2023-03-05T06:04:11.788Z,1.17
2023-03-05T06:08:13.257Z,1.07
2023-03-05T06:12:15.942Z,1.07
2023-03-05T06:16:18.266Z,1.09
2023-03-05T06:20:19.936Z,1.07
2023-03-05T06:24:21.249Z,1.21
2023-03-05T06:28:23.965Z,1.22
2023-03-05T06:32:25.356Z,1.22
2023-03-05T06:36:27.012Z,1.24
2023-03-05T06:40:28.319Z,1.34
2023-03-05T06:44:31.157Z,1.38
2023-03-05T06:48:32.672Z,1.44
2023-03-05T06:52:34.019Z,1.47
2023-03-05T06:56:36.516Z,1.61
2023-03-05T07:00:39.180Z,1.72
2023-03-05T07:04:40.525Z,1.94
2023-03-05T07:08:42.263Z,2.23
2023-03-05T07:12:43.700Z,2.57
2023-03-05T07:16:46.426Z,2.52
2023-03-05T07:20:47.778Z,2.74
2023-03-05T07:24:49.120Z,2.74
2023-03-05T07:28:50.463Z,2.86
2023-03-05T07:32:53.136Z,2.83
2023-03-05T07:36:54.518Z,2.85
2023-03-05T07:40:55.840Z,2.80
2023-03-05T07:44:57.366Z,2.86
2023-03-05T07:49:00.173Z,2.91
2023-03-05T07:53:01.520Z,2.92
2023-03-05T07:57:03.012Z,2.96
2023-03-05T08:01:11.675Z,3.00
2023-03-05T08:05:15.954Z,3.24
2023-03-05T08:09:17.636Z,3.35
2023-03-05T08:13:19.000Z,3.20
2023-03-05T08:17:20.375Z,3.13
2023-03-05T08:21:26.672Z,3.29
2023-03-05T08:25:28.126Z,3.22
2023-03-05T08:29:29.467Z,3.46
2023-03-05T08:33:31.653Z,3.60
2023-03-05T08:37:35.616Z,3.64
2023-03-05T08:41:37.081Z,3.73
2023-03-05T08:45:39.060Z,3.90
2023-03-05T08:49:40.412Z,4.15
2023-03-05T08:53:43.602Z,4.18
2023-03-05T08:57:44.947Z,4.21
2023-03-05T09:01:46.321Z,4.46
2023-03-05T09:05:47.831Z,4.43
2023-03-05T09:09:50.543Z,4.35
2023-03-05T09:13:51.886Z,4.46
2023-03-05T09:17:53.226Z,4.46
2023-03-05T09:21:56.860Z,4.38
2023-03-05T09:25:59.776Z,4.15
2023-03-05T09:30:01.202Z,4.07
2023-03-05T09:34:02.590Z,4.01
2023-03-05T09:38:04.087Z,3.90
2023-03-05T09:42:17.435Z,3.74
2023-03-05T09:46:26.132Z,3.64
2023-03-05T09:50:32.740Z,3.54
2023-03-05T09:54:38.094Z,3.40
2023-03-05T09:58:42.308Z,3.51
2023-03-05T10:02:48.165Z,3.55
2023-03-05T10:06:53.030Z,3.54
2023-03-05T10:10:54.829Z,3.91
2023-03-05T10:14:58.122Z,4.21
2023-03-05T10:19:03.843Z,4.29
2023-03-05T10:23:15.197Z,4.31
2023-03-05T10:27:19.423Z,4.18
2023-03-05T10:31:29.756Z,4.24
2023-03-05T10:35:39.756Z,4.39
2023-03-05T10:39:46.657Z,4.33
2023-03-05T10:43:52.308Z,4.38
2023-03-05T10:47:57.391Z,4.45
2023-03-05T10:52:03.980Z,4.24
2023-03-05T10:56:05.909Z,4.23
2023-03-05T11:00:11.839Z,4.37
2023-03-05T11:04:27.188Z,4.16
2023-03-05T11:08:31.921Z,4.15
2023-03-05T11:12:34.107Z,4.40
2023-03-05T11:16:46.316Z,4.44
2023-03-05T11:20:49.017Z,4.38
2023-03-05T11:25:03.268Z,4.29
2023-03-05T11:29:15.906Z,4.24
2023-03-05T11:33:19.528Z,4.26
2023-03-05T11:37:26.661Z,4.24
2023-03-05T11:41:32.792Z,4.35
2023-03-05T11:45:34.741Z,4.28
2023-03-05T11:49:41.027Z,4.42
2023-03-05T11:53:45.907Z,4.39
2023-03-05T11:57:50.623Z,4.46
2023-03-05T12:01:54.307Z,4.51
2023-03-05T12:05:57.236Z,4.54
2023-03-05T12:10:00.460Z,4.47
2023-03-05T12:14:05.192Z,4.29
2023-03-05T12:18:13.537Z,4.10
2023-03-05T12:22:19.794Z,4.19
2023-03-05T12:26:36.047Z,4.01
2023-03-05T12:30:56.014Z,4.10
2023-03-05T12:34:58.780Z,4.11
2023-03-05T12:39:00.276Z,3.99
2023-03-05T12:43:02.137Z,4.08
2023-03-05T12:47:16.432Z,3.98
2023-03-05T12:51:35.756Z,3.79
2023-03-05T12:55:38.003Z,3.70
2023-03-05T12:59:42.080Z,3.68
2023-03-05T13:03:45.464Z,3.54
2023-03-05T13:07:48.286Z,3.67
2023-03-05T13:11:51.690Z,3.50
2023-03-05T13:15:53.320Z,3.49
2023-03-05T13:19:54.808Z,3.51
2023-03-05T13:23:58.253Z,3.55
2023-03-05T13:28:02.499Z,3.63
2023-03-05T13:32:17.714Z,3.70
2023-03-05T13:36:19.696Z,3.69
2023-03-05T13:40:23.978Z,3.75
2023-03-05T13:44:25.365Z,3.75
2023-03-05T13:48:27.391Z,3.73
2023-03-05T13:52:29.473Z,3.69
2023-03-05T13:56:32.193Z,3.63
2023-03-05T14:00:34.490Z,3.86
2023-03-05T14:04:36.789Z,4.00
2023-03-05T14:08:38.317Z,3.86
2023-03-05T14:12:42.928Z,3.99
2023-03-05T14:16:44.339Z,3.89
2023-03-05T14:20:59.642Z,3.96
2023-03-05T14:25:01.221Z,4.03
2023-03-05T14:29:04.752Z,3.92
2023-03-05T14:33:06.226Z,3.99
2023-03-05T14:37:17.341Z,3.77
2023-03-05T14:41:19.703Z,3.78
2023-03-05T14:45:23.870Z,3.75
2023-03-05T14:49:25.225Z,3.94
2023-03-05T14:53:27.916Z,4.19
2023-03-05T14:57:31.253Z,4.30
2023-03-05T15:01:33.977Z,4.24
2023-03-05T15:05:36.818Z,4.26
2023-03-05T15:09:38.170Z,4.08
2023-03-05T15:13:39.577Z,4.04
2023-03-05T15:17:42.979Z,4.11
2023-03-05T15:21:44.334Z,3.91
2023-03-05T15:25:45.752Z,4.02
2023-03-05T15:29:47.160Z,4.05
2023-03-05T15:33:49.917Z,4.09
2023-03-05T15:37:51.669Z,4.03
2023-03-05T15:41:53.424Z,3.98
2023-03-05T15:45:54.873Z,4.00
2023-03-05T15:49:57.634Z,3.93
2023-03-05T15:53:59.022Z,3.96
2023-03-05T15:58:00.356Z,3.92
2023-03-05T16:02:01.778Z,3.92
2023-03-05T16:06:05.187Z,3.87
2023-03-05T16:10:07.241Z,3.65
2023-03-05T16:14:09.590Z,3.60
2023-03-05T16:18:12.487Z,3.48
2023-03-05T16:22:15.241Z,3.40
2023-03-05T16:26:16.793Z,3.41
2023-03-05T16:30:18.500Z,3.47
2023-03-05T16:34:20.019Z,3.44
2023-03-05T16:38:22.725Z,3.35
2023-03-05T16:42:24.095Z,3.43
2023-03-05T16:46:26.286Z,3.34
2023-03-05T16:50:27.654Z,3.30
2023-03-05T16:54:30.703Z,3.09
2023-03-05T16:58:33.115Z,3.24
2023-03-05T17:02:34.924Z,3.20
2023-03-05T17:06:36.341Z,3.11
2023-03-05T17:10:39.087Z,2.90
2023-03-05T17:14:40.429Z,2.86
2023-03-05T17:18:41.753Z,2.97
2023-03-05T17:22:43.086Z,3.01
2023-03-05T17:26:45.780Z,2.89
2023-03-05T17:30:47.299Z,2.85
2023-03-05T17:34:52.244Z,2.73
2023-03-05T17:38:53.778Z,2.82
2023-03-05T17:42:56.511Z,2.75
2023-03-05T17:46:57.827Z,2.80
2023-03-05T17:50:59.359Z,2.80
2023-03-05T17:55:00.669Z,2.71
2023-03-05T17:59:03.389Z,2.83
2023-03-05T18:03:05.050Z,2.86
2023-03-05T18:07:06.457Z,2.82
2023-03-05T18:11:07.835Z,2.72
2023-03-05T18:15:12.387Z,2.75
2023-03-05T18:19:13.761Z,2.79
2023-03-05T18:23:15.594Z,2.74
2023-03-05T18:27:16.983Z,2.75
2023-03-05T18:31:19.741Z,2.79
2023-03-05T18:35:21.148Z,2.71
2023-03-05T18:39:22.553Z,2.59
2023-03-05T18:43:24.668Z,2.59
2023-03-05T18:47:27.437Z,2.59
2023-03-05T18:51:29.050Z,2.66
2023-03-05T18:55:30.437Z,2.71
2023-03-05T18:59:31.821Z,2.63
2023-03-05T19:03:34.945Z,2.56
2023-03-05T19:07:36.407Z,2.57
2023-03-05T19:11:37.795Z,2.67
2023-03-05T19:15:39.199Z,2.54
2023-03-05T19:19:42.021Z,2.38
2023-03-05T19:23:43.444Z,2.20
2023-03-05T19:27:44.819Z,2.09
2023-03-05T19:31:46.177Z,2.01
2023-03-05T19:35:48.980Z,2.01
2023-03-05T19:39:50.431Z,1.91
2023-03-05T19:43:51.854Z,1.97
2023-03-05T19:47:53.320Z,1.88
2023-03-05T19:51:56.081Z,1.85
2023-03-05T19:55:57.444Z,1.81
2023-03-05T19:59:58.819Z,1.79
2023-03-05T20:04:01.372Z,1.75
2023-03-05T20:08:04.106Z,1.69
2023-03-05T20:12:05.697Z,1.57
2023-03-05T20:16:12.783Z,1.55
2023-03-05T20:20:14.378Z,1.59
2023-03-05T20:24:18.548Z,1.50
2023-03-05T20:28:19.893Z,1.40
2023-03-05T20:32:21.332Z,1.47
2023-03-05T20:36:22.732Z,1.30
2023-03-05T20:40:25.497Z,1.36
2023-03-05T20:44:26.851Z,1.43
2023-03-05T20:48:29.059Z,1.59
2023-03-05T20:52:30.476Z,1.32
2023-03-05T20:56:34.044Z,1.37
2023-03-05T21:00:35.899Z,1.48
2023-03-05T21:04:37.631Z,1.41
2023-03-05T21:08:39.012Z,1.29
2023-03-05T21:12:41.778Z,1.26
2023-03-05T21:16:43.245Z,1.19
2023-03-05T21:20:45.312Z,1.21
2023-03-05T21:24:46.650Z,1.13
2023-03-05T21:28:49.392Z,1.14
2023-03-05T21:32:50.731Z,1.11
2023-03-05T21:36:52.056Z,1.24
2023-03-05T21:40:53.502Z,1.31
2023-03-05T21:44:56.220Z,1.10
2023-03-05T21:48:57.563Z,1.05
2023-03-05T21:52:59.066Z,1.03
2023-03-05T21:57:00.394Z,1.06
2023-03-05T22:01:03.365Z,1.04
2023-03-05T22:05:05.134Z,1.24
2023-03-05T22:09:06.475Z,1.13
2023-03-05T22:13:08.831Z,1.13
2023-03-05T22:17:11.530Z,1.25
2023-03-05T22:21:16.890Z,1.09
2023-03-05T22:25:18.498Z,1.07
2023-03-05T22:29:19.843Z,0.99
2023-03-05T22:33:23.256Z,1.09
2023-03-05T22:37:24.737Z,1.04
2023-03-05T22:41:26.253Z,0.99
2023-03-05T22:45:28.355Z,0.97
2023-03-05T22:49:32.171Z,1.04
2023-03-05T22:53:33.591Z,1.05
2023-03-05T22:57:34.941Z,1.02
2023-03-05T23:01:36.306Z,0.96
2023-03-05T23:05:39.440Z,0.93
2023-03-05T23:09:40.826Z,0.92
2023-03-05T23:13:42.243Z,0.85
2023-03-05T23:17:43.916Z,0.85
2023-03-05T23:21:46.652Z,0.88
2023-03-05T23:25:49.912Z,0.89
2023-03-05T23:29:52.510Z,0.83
2023-03-05T23:33:53.892Z,0.82
2023-03-05T23:37:57.272Z,0.94
2023-03-05T23:41:58.657Z,0.85
2023-03-05T23:46:00.096Z,0.81
2023-03-05T23:50:01.634Z,0.98
2023-03-05T23:54:04.560Z,0.76
2023-03-05T23:58:06.426Z,0.72
